Pilot information for Tandala Airport

[ general | frequencies | runways | weather | notam | navaids | links ]

Caution: This page displays community-maintained data: information may be missing, incorrect, or out of date. Please confirm with an official source before making travel plans.

General information for Tandala Airport

Airport codes: FZFT
Type: local airport(light traffic)
Scheduled airline service: no
Serves: Tandala, Equateur, Congo (Kinshasa)
Latitude: 2.977585 | 2 58.655071 N | N02 58 39
Longitude: 19.351408 | 19 21.084509 E | E019 21 05
Field elevation: 1,640 ft/500 m MSL

Radio communication frequencies for Tandala Airport

No communications frequencies known for Tandala Airport.

Members can add and update frequencies.

Runways at Tandala Airport

No runway information available for Tandala Airport.

Members can add and update runway information.

Aviation weather for Tandala Airport

Current conditions (METAR) for Tandala Airport

Closest report is Gemena Airport, 29.6 nm (54.7 km) ENE. Retrieved 2012/08/18 09:00:

FZFK 180900Z 29004KT 9999 BKN023 30/23 Q//// NOSIG

Forecast (TAF) for Tandala Airport

Closest forecast is Bangui M'Poko International Airport, 98.8 nm (183.0 km) NNW. Retrieved 2014/09/23 00:00:

TAF FCBB 232300Z 2400/2506 24005KT 8000 FEW015= TAF FEFF 232300Z 2400/2506 VRB02KT CAVOK 
      TEMPO 2405/2407 4000 BR BKN003 
      BECMG 2407/2408 6000 BKN010 
      TEMPO 2414/2416 TS BKN026 FEW033CB

Notices to Airmen (NOTAM) for Tandala Airport

Please confirm all NOTAMs at the original source! These are for information only, and may be wrong, out of date, or incomplete.

We have no current NOTAMs for Tandala Airport. Please check with an official source to confirm.